createdAt,value
2016-09-07T00:00:28.510Z,1044.93
2016-09-07T00:01:28.498Z,1044.92
2016-09-07T00:02:28.492Z,1044.99
2016-09-07T00:03:28.486Z,1044.95
2016-09-07T00:04:28.487Z,1044.96
2016-09-07T00:05:28.474Z,1045
2016-09-07T00:06:28.468Z,1044.99
2016-09-07T00:07:28.464Z,1044.99
2016-09-07T00:08:29.503Z,1044.97
2016-09-07T00:09:28.454Z,1044.95
2016-09-07T00:10:28.678Z,1044.95
2016-09-07T00:11:28.445Z,1044.95
2016-09-07T00:12:28.440Z,1044.92
2016-09-07T00:13:28.705Z,1044.9
2016-09-07T00:14:28.917Z,1044.9
2016-09-07T00:15:28.417Z,1044.88
2016-09-07T00:16:28.423Z,1044.86
2016-09-07T00:17:28.411Z,1044.85
2016-09-07T00:18:29.918Z,1044.85
2016-09-07T00:19:28.395Z,1044.84
2016-09-07T00:20:28.387Z,1044.8
2016-09-07T00:21:29.282Z,1044.81
2016-09-07T00:22:28.382Z,1044.81
2016-09-07T00:23:28.372Z,1044.85
2016-09-07T00:24:28.371Z,1044.83
2016-09-07T00:25:28.358Z,1044.81
2016-09-07T00:26:28.353Z,1044.8
2016-09-07T00:27:28.349Z,1044.78
2016-09-07T00:28:28.348Z,1044.74
2016-09-07T00:29:28.353Z,1044.78
2016-09-07T00:30:28.327Z,1044.81
2016-09-07T00:31:28.323Z,1044.81
2016-09-07T00:32:28.316Z,1044.76
2016-09-07T00:33:28.316Z,1044.78
2016-09-07T00:34:28.304Z,1044.77
2016-09-07T00:35:28.299Z,1044.79
2016-09-07T00:36:28.598Z,1044.82
2016-09-07T00:37:28.292Z,1044.85
2016-09-07T00:38:28.287Z,1044.82
2016-09-07T00:39:28.276Z,1044.81
2016-09-07T00:40:28.418Z,1044.84
2016-09-07T00:41:28.262Z,1044.79
2016-09-07T00:42:28.263Z,1044.76
2016-09-07T00:43:28.250Z,1044.82
2016-09-07T00:44:28.245Z,1044.82
2016-09-07T00:45:28.244Z,1044.86
2016-09-07T00:46:28.239Z,1044.83
2016-09-07T00:47:29.230Z,1044.82
2016-09-07T00:48:28.573Z,1044.81
2016-09-07T00:49:28.220Z,1044.81
2016-09-07T00:50:28.209Z,1044.89
2016-09-07T00:51:28.208Z,1044.88
2016-09-07T00:52:28.196Z,1044.89
2016-09-07T00:53:28.190Z,1044.9
2016-09-07T00:54:28.185Z,1044.9
2016-09-07T00:55:28.180Z,1044.85
2016-09-07T00:56:28.178Z,1044.87
2016-09-07T00:57:28.168Z,1044.81
2016-09-07T00:58:28.161Z,1044.85
2016-09-07T00:59:28.153Z,1044.88
2016-09-07T01:00:28.154Z,1044.87
2016-09-07T01:01:28.148Z,1044.83
2016-09-07T01:02:28.136Z,1044.81
2016-09-07T01:03:28.131Z,1044.79
2016-09-07T01:04:28.124Z,1044.79
2016-09-07T01:05:28.117Z,1044.78
2016-09-07T01:06:28.113Z,1044.8
2016-09-07T01:07:28.111Z,1044.78
2016-09-07T01:08:28.104Z,1044.72
2016-09-07T01:09:28.093Z,1044.73
2016-09-07T01:10:28.090Z,1044.72
2016-09-07T01:11:28.087Z,1044.7
2016-09-07T01:12:28.074Z,1044.74
2016-09-07T01:13:28.068Z,1044.75
2016-09-07T01:14:28.067Z,1044.73
2016-09-07T01:15:28.062Z,1044.71
2016-09-07T01:16:28.056Z,1044.7
2016-09-07T01:17:28.045Z,1044.72
2016-09-07T01:18:28.038Z,1044.69
2016-09-07T01:19:28.039Z,1044.7
2016-09-07T01:20:28.026Z,1044.71
2016-09-07T01:21:28.026Z,1044.71
2016-09-07T01:22:28.016Z,1044.69
2016-09-07T01:23:28.008Z,1044.69
2016-09-07T01:24:28.003Z,1044.71
2016-09-07T01:25:27.996Z,1044.7
2016-09-07T01:27:27.990Z,1044.72
2016-09-07T01:28:28.513Z,1044.73
2016-09-07T01:29:28.293Z,1044.74
2016-09-07T01:30:27.965Z,1044.72
2016-09-07T01:31:28.338Z,1044.73
2016-09-07T01:32:28.486Z,1044.73
2016-09-07T01:33:27.946Z,1044.75
2016-09-07T01:34:27.940Z,1044.77
2016-09-07T01:35:27.933Z,1044.77
2016-09-07T01:36:29.042Z,1044.83
2016-09-07T01:37:27.922Z,1044.81
2016-09-07T01:38:27.915Z,1044.85
2016-09-07T01:39:28.618Z,1044.82
2016-09-07T01:40:27.903Z,1044.86
2016-09-07T01:41:27.903Z,1044.78
2016-09-07T01:42:27.892Z,1044.79
2016-09-07T01:43:27.884Z,1044.76
2016-09-07T01:44:27.881Z,1044.76
2016-09-07T01:45:27.879Z,1044.79
2016-09-07T01:46:27.866Z,1044.79
2016-09-07T01:47:27.865Z,1044.8
2016-09-07T01:48:27.854Z,1044.82
2016-09-07T01:49:27.847Z,1044.86
2016-09-07T01:50:27.844Z,1044.83
2016-09-07T01:51:27.841Z,1044.83
2016-09-07T01:52:27.828Z,1044.81
2016-09-07T01:53:27.827Z,1044.78
2016-09-07T01:54:28.417Z,1044.75
2016-09-07T01:55:27.815Z,1044.74
2016-09-07T01:56:27.804Z,1044.75
2016-09-07T01:57:27.797Z,1044.77
2016-09-07T01:58:27.991Z,1044.75
2016-09-07T01:59:27.783Z,1044.74
2016-09-07T02:00:27.779Z,1044.74
2016-09-07T02:01:27.777Z,1044.76
2016-09-07T02:02:27.765Z,1044.75
2016-09-07T02:03:27.760Z,1044.74
2016-09-07T02:04:27.766Z,1044.76
2016-09-07T02:05:28.696Z,1044.75
2016-09-07T02:06:27.990Z,1044.7
2016-09-07T02:07:27.734Z,1044.69
2016-09-07T02:08:27.729Z,1044.68
2016-09-07T02:09:27.720Z,1044.66
2016-09-07T02:10:27.720Z,1044.67
2016-09-07T02:11:27.710Z,1044.68
2016-09-07T02:12:27.702Z,1044.62
2016-09-07T02:13:27.702Z,1044.63
2016-09-07T02:14:27.689Z,1044.63
2016-09-07T02:15:27.682Z,1044.6
2016-09-07T02:16:27.678Z,1044.63
2016-09-07T02:17:27.671Z,1044.65
2016-09-07T02:18:27.667Z,1044.65
2016-09-07T02:19:27.657Z,1044.68
2016-09-07T02:20:27.651Z,1044.67
2016-09-07T02:21:27.651Z,1044.62
2016-09-07T02:22:27.644Z,1044.63
2016-09-07T02:23:27.634Z,1044.62
2016-09-07T02:24:27.629Z,1044.62
2016-09-07T02:25:27.619Z,1044.67
2016-09-07T02:26:27.612Z,1044.66
2016-09-07T02:27:27.608Z,1044.65
2016-09-07T02:28:27.606Z,1044.64
2016-09-07T02:29:27.593Z,1044.6
2016-09-07T02:30:27.586Z,1044.62
2016-09-07T02:31:27.582Z,1044.63
2016-09-07T02:32:27.580Z,1044.64
2016-09-07T02:33:27.568Z,1044.64
2016-09-07T02:34:27.567Z,1044.63
2016-09-07T02:35:27.561Z,1044.61
2016-09-07T02:36:27.548Z,1044.61
2016-09-07T02:37:27.542Z,1044.58
2016-09-07T02:38:27.535Z,1044.61
2016-09-07T02:39:27.535Z,1044.65
2016-09-07T02:40:27.525Z,1044.61
2016-09-07T02:41:27.517Z,1044.56
2016-09-07T02:42:27.510Z,1044.6
2016-09-07T02:43:27.506Z,1044.6
2016-09-07T02:44:27.496Z,1044.62
2016-09-07T02:45:27.490Z,1044.61
2016-09-07T02:46:27.483Z,1044.58
2016-09-07T02:47:27.479Z,1044.58
2016-09-07T02:48:27.471Z,1044.56
2016-09-07T02:49:27.463Z,1044.53
2016-09-07T02:50:27.464Z,1044.54
2016-09-07T02:51:27.451Z,1044.49
2016-09-07T02:52:27.445Z,1044.48
2016-09-07T02:53:28.775Z,1044.47
2016-09-07T02:54:27.435Z,1044.44
2016-09-07T02:55:27.826Z,1044.45
2016-09-07T02:56:27.776Z,1044.47
2016-09-07T02:57:27.420Z,1044.43
2016-09-07T02:58:27.407Z,1044.43
2016-09-07T02:59:27.406Z,1044.4
2016-09-07T03:00:27.394Z,1044.34
2016-09-07T03:01:27.390Z,1044.34
2016-09-07T03:02:27.386Z,1044.32
2016-09-07T03:03:27.374Z,1044.34
2016-09-07T03:04:27.367Z,1044.29
2016-09-07T03:05:27.367Z,1044.26
2016-09-07T03:06:27.354Z,1044.27
2016-09-07T03:07:27.348Z,1044.26
2016-09-07T03:08:27.343Z,1044.27
2016-09-07T03:09:27.340Z,1044.28
2016-09-07T03:10:27.329Z,1044.29
2016-09-07T03:11:27.321Z,1044.26
2016-09-07T03:12:27.316Z,1044.26
2016-09-07T03:13:27.315Z,1044.24
2016-09-07T03:14:27.702Z,1044.21
2016-09-07T03:15:27.297Z,1044.22
2016-09-07T03:16:27.290Z,1044.2
2016-09-07T03:17:27.281Z,1044.21
2016-09-07T03:18:27.281Z,1044.17
2016-09-07T03:19:27.271Z,1044.17
2016-09-07T03:20:27.263Z,1044.19
2016-09-07T03:21:27.255Z,1044.14
2016-09-07T03:22:27.255Z,1044.15
2016-09-07T03:23:27.243Z,1044.18
2016-09-07T03:24:27.238Z,1044.16
2016-09-07T03:25:27.228Z,1044.13
2016-09-07T03:26:27.223Z,1044.1
2016-09-07T03:27:27.216Z,1044.1
2016-09-07T03:28:27.208Z,1044.12
2016-09-07T03:29:27.209Z,1044.09
2016-09-07T03:30:27.203Z,1044.13
2016-09-07T03:31:27.190Z,1044.1
2016-09-07T03:32:27.188Z,1044.08
2016-09-07T03:33:27.176Z,1044.06
2016-09-07T03:34:27.169Z,1044.06
2016-09-07T03:35:27.163Z,1044.07
2016-09-07T03:36:27.157Z,1044
2016-09-07T03:37:27.150Z,1043.99
2016-09-07T03:38:27.149Z,1043.98
2016-09-07T03:39:27.138Z,1043.99
2016-09-07T03:40:27.130Z,1043.99
2016-09-07T03:41:27.123Z,1043.96
2016-09-07T03:42:27.123Z,1043.96
2016-09-07T03:43:27.110Z,1043.95
2016-09-07T03:44:27.110Z,1043.96
2016-09-07T03:45:27.097Z,1043.93
2016-09-07T03:46:27.095Z,1043.94
2016-09-07T03:47:27.083Z,1043.91
2016-09-07T03:48:27.082Z,1043.92
2016-09-07T03:49:27.071Z,1043.88
2016-09-07T03:50:27.068Z,1043.9
2016-09-07T03:51:27.057Z,1043.9
2016-09-07T03:52:27.056Z,1043.9
2016-09-07T03:53:27.043Z,1043.88
2016-09-07T03:54:27.042Z,1043.93
2016-09-07T03:55:27.029Z,1043.9
2016-09-07T03:56:27.023Z,1043.9
2016-09-07T03:57:27.017Z,1043.9
2016-09-07T03:58:27.011Z,1043.91
2016-09-07T03:59:27.009Z,1043.87
2016-09-07T04:00:27.001Z,1043.94
2016-09-07T04:01:26.989Z,1043.9
2016-09-07T04:02:26.989Z,1043.89
2016-09-07T04:03:26.976Z,1043.9
2016-09-07T04:04:26.970Z,1043.9
2016-09-07T04:05:26.962Z,1043.9
2016-09-07T04:06:26.958Z,1043.91
2016-09-07T04:07:26.950Z,1043.85
2016-09-07T04:08:26.949Z,1043.92
2016-09-07T04:09:26.943Z,1043.88
2016-09-07T04:10:26.931Z,1043.88
2016-09-07T04:11:28.402Z,1043.84
2016-09-07T04:12:26.916Z,1043.87
2016-09-07T04:13:27.900Z,1043.82
2016-09-07T04:14:27.952Z,1043.86
2016-09-07T04:15:26.903Z,1043.88
2016-09-07T04:16:26.895Z,1043.84
2016-09-07T04:17:26.888Z,1043.84
2016-09-07T04:18:26.875Z,1043.83
2016-09-07T04:19:26.871Z,1043.82
2016-09-07T04:20:26.870Z,1043.78
2016-09-07T04:21:26.862Z,1043.77
2016-09-07T04:22:26.849Z,1043.77
2016-09-07T04:23:26.849Z,1043.73
2016-09-07T04:24:26.835Z,1043.7
2016-09-07T04:25:26.830Z,1043.68
2016-09-07T04:26:26.823Z,1043.64
2016-09-07T04:27:26.817Z,1043.68
2016-09-07T04:28:26.812Z,1043.66
2016-09-07T04:29:26.810Z,1043.66
2016-09-07T04:30:26.799Z,1043.64
2016-09-07T04:31:26.790Z,1043.65
2016-09-07T04:32:27.241Z,1043.6
2016-09-07T04:33:26.783Z,1043.6
2016-09-07T04:34:26.770Z,1043.61
2016-09-07T04:35:26.765Z,1043.57
2016-09-07T04:36:26.764Z,1043.59
2016-09-07T04:37:26.753Z,1043.54
2016-09-07T04:38:26.751Z,1043.55
2016-09-07T04:39:26.739Z,1043.53
2016-09-07T04:40:26.738Z,1043.51
2016-09-07T04:41:26.725Z,1043.5
2016-09-07T04:42:26.720Z,1043.46
2016-09-07T04:43:26.712Z,1043.43
2016-09-07T04:44:27.055Z,1043.39
2016-09-07T04:45:26.848Z,1043.39
2016-09-07T04:46:26.691Z,1043.4
2016-09-07T04:47:26.685Z,1043.4
2016-09-07T04:48:26.678Z,1043.37
2016-09-07T04:49:26.672Z,1043.26
2016-09-07T04:50:26.666Z,1043.14
2016-09-07T04:51:26.660Z,1042.95
2016-09-07T04:52:26.658Z,1042.8
2016-09-07T04:53:26.646Z,1042.68
2016-09-07T04:54:26.647Z,1042.48
2016-09-07T04:55:26.635Z,1042.3
2016-09-07T04:56:26.633Z,1042.1
2016-09-07T04:57:26.624Z,1041.96
2016-09-07T04:58:26.617Z,1041.76
2016-09-07T04:59:26.609Z,1041.62
2016-09-07T05:00:26.603Z,1041.46
2016-09-07T05:01:26.604Z,1041.39
2016-09-07T05:02:26.593Z,1041.2
2016-09-07T05:03:26.588Z,1041.06
2016-09-07T05:04:26.581Z,1040.92
2016-09-07T05:05:26.585Z,1040.71
2016-09-07T05:06:26.572Z,1040.56
2016-09-07T05:07:26.567Z,1040.44
2016-09-07T05:08:26.563Z,1040.28
2016-09-07T05:09:26.558Z,1040.17
2016-09-07T05:10:26.561Z,1039.99
2016-09-07T05:11:26.555Z,1039.88
2016-09-07T05:12:26.546Z,1039.7
2016-09-07T05:13:26.548Z,1039.55
2016-09-07T05:14:26.541Z,1039.45
2016-09-07T05:15:26.538Z,1039.34
2016-09-07T05:16:26.532Z,1039.25
2016-09-07T05:17:26.535Z,1039.16
2016-09-07T05:18:26.526Z,1039.05
2016-09-07T05:19:26.524Z,1038.97
2016-09-07T05:20:26.520Z,1038.81
2016-09-07T05:21:26.516Z,1038.68
2016-09-07T05:22:26.516Z,1038.54
2016-09-07T05:23:26.512Z,1038.44
2016-09-07T05:24:26.512Z,1038.31
2016-09-07T05:25:26.514Z,1038.19
2016-09-07T05:26:26.509Z,1038.03
2016-09-07T05:27:26.506Z,1037.91
2016-09-07T05:28:26.503Z,1037.8
2016-09-07T05:29:26.502Z,1037.7
2016-09-07T05:30:26.506Z,1037.63
2016-09-07T05:31:26.502Z,1037.52
2016-09-07T05:32:26.498Z,1037.42
2016-09-07T05:33:26.498Z,1037.36
2016-09-07T05:34:26.503Z,1037.28
2016-09-07T05:35:26.497Z,1037.21
2016-09-07T05:36:26.784Z,1037.16
2016-09-07T05:37:26.503Z,1037.11
2016-09-07T05:38:26.496Z,1037.01
2016-09-07T05:39:26.500Z,1036.89
2016-09-07T05:40:26.503Z,1036.82
2016-09-07T05:41:26.498Z,1036.74
2016-09-07T05:42:26.499Z,1036.67
2016-09-07T05:43:26.500Z,1036.55
2016-09-07T05:44:26.507Z,1036.45
2016-09-07T05:45:26.504Z,1036.36
2016-09-07T05:46:26.511Z,1036.24
2016-09-07T05:47:26.505Z,1036.16
2016-09-07T05:48:26.507Z,1036.06
2016-09-07T05:49:26.509Z,1035.98
2016-09-07T05:50:26.515Z,1035.86
2016-09-07T05:51:26.815Z,1035.77
2016-09-07T05:52:26.518Z,1035.71
2016-09-07T05:53:26.520Z,1035.68
2016-09-07T05:54:26.523Z,1035.56
2016-09-07T05:55:26.526Z,1035.5
2016-09-07T05:56:26.678Z,1035.4
2016-09-07T05:57:26.534Z,1035.33
2016-09-07T05:58:26.737Z,1035.28
2016-09-07T05:59:26.541Z,1035.23
2016-09-07T06:00:26.545Z,1035.16
2016-09-07T06:01:26.557Z,1035.08
2016-09-07T06:02:26.555Z,1035.04
2016-09-07T06:03:26.561Z,1035.02
2016-09-07T06:04:26.565Z,1034.9
2016-09-07T06:05:26.568Z,1034.85
2016-09-07T06:06:26.573Z,1034.82
2016-09-07T06:07:26.587Z,1034.78
2016-09-07T06:08:26.584Z,1034.73
2016-09-07T06:09:26.591Z,1034.65
2016-09-07T06:10:26.594Z,1034.56
2016-09-07T06:11:26.607Z,1034.49
2016-09-07T06:12:26.608Z,1034.49
2016-09-07T06:13:26.614Z,1034.49
2016-09-07T06:14:26.621Z,1034.4
2016-09-07T06:15:26.631Z,1034.36
2016-09-07T06:16:26.630Z,1034.24
2016-09-07T06:17:26.637Z,1034.18
2016-09-07T06:18:26.645Z,1034.05
2016-09-07T06:19:26.651Z,1034
2016-09-07T06:20:26.657Z,1033.95
2016-09-07T06:21:26.664Z,1033.8
2016-09-07T06:23:26.678Z,1033.66
2016-09-07T06:24:26.684Z,1033.59
2016-09-07T06:25:26.700Z,1033.55
2016-09-07T06:26:26.700Z,1033.49
2016-09-07T06:27:26.708Z,1033.47
2016-09-07T06:28:26.720Z,1033.39
2016-09-07T06:29:26.721Z,1033.35
2016-09-07T06:30:26.729Z,1033.21
2016-09-07T06:31:26.736Z,1033.26
2016-09-07T06:32:26.750Z,1033.15
2016-09-07T06:33:26.751Z,1033.05
2016-09-07T06:34:26.766Z,1032.96
2016-09-07T06:35:26.768Z,1032.89
2016-09-07T06:36:26.796Z,1032.84
2016-09-07T06:37:26.783Z,1032.82
2016-09-07T06:38:26.800Z,1032.8
2016-09-07T06:39:26.800Z,1032.74
2016-09-07T06:40:26.815Z,1032.72
2016-09-07T06:41:26.820Z,1032.71
2016-09-07T06:42:26.992Z,1032.67
2016-09-07T06:43:26.834Z,1032.63
2016-09-07T06:44:26.849Z,1032.53
2016-09-07T06:45:26.857Z,1032.39
2016-09-07T06:46:26.861Z,1032.37
2016-09-07T06:47:26.876Z,1032.4
2016-09-07T06:48:26.880Z,1032.37
2016-09-07T06:49:26.893Z,1032.28
2016-09-07T06:50:26.897Z,1032.19
2016-09-07T06:51:26.911Z,1032.13
2016-09-07T06:52:26.922Z,1032.11
2016-09-07T06:53:26.922Z,1032.01
2016-09-07T06:54:26.933Z,1032.07
2016-09-07T06:55:26.944Z,1032.06
2016-09-07T06:56:26.951Z,1032.04
2016-09-07T06:57:26.966Z,1032.11
2016-09-07T06:58:26.971Z,1032.15
2016-09-07T06:59:26.986Z,1032.26
2016-09-07T07:00:26.989Z,1032.31
2016-09-07T07:01:27.000Z,1032.48
2016-09-07T07:02:27.009Z,1032.55
2016-09-07T07:03:27.026Z,1032.49
2016-09-07T07:04:27.030Z,1032.58
2016-09-07T07:05:27.038Z,1032.71
2016-09-07T07:06:27.048Z,1032.73
2016-09-07T07:07:27.063Z,1032.74
2016-09-07T07:08:27.067Z,1032.78
2016-09-07T07:09:27.079Z,1032.82
2016-09-07T07:10:27.087Z,1032.74
2016-09-07T07:11:27.103Z,1032.78
2016-09-07T07:12:27.109Z,1032.85
2016-09-07T07:13:27.117Z,1032.89
2016-09-07T07:14:27.977Z,1032.89
2016-09-07T07:15:27.387Z,1032.7
2016-09-07T07:16:27.148Z,1032.64
2016-09-07T07:17:27.156Z,1032.67
2016-09-07T07:18:27.165Z,1032.69
2016-09-07T07:19:27.226Z,1032.67
2016-09-07T07:20:27.188Z,1032.66
2016-09-07T07:21:27.197Z,1032.65
2016-09-07T07:22:27.206Z,1032.56
2016-09-07T07:23:27.216Z,1032.43
2016-09-07T07:24:27.227Z,1032.47
2016-09-07T07:25:27.237Z,1032.37
2016-09-07T07:26:27.247Z,1032.41
2016-09-07T07:27:27.264Z,1032.38
2016-09-07T07:28:27.267Z,1032.38
2016-09-07T07:29:27.284Z,1032.45
2016-09-07T07:30:27.290Z,1032.57
2016-09-07T07:31:27.305Z,1032.65
2016-09-07T07:32:27.311Z,1032.78
2016-09-07T07:33:27.319Z,1032.9
2016-09-07T07:34:27.330Z,1033.06
2016-09-07T07:35:27.350Z,1033.09
2016-09-07T07:36:27.351Z,1033.1
2016-09-07T07:37:27.361Z,1033.02
2016-09-07T07:38:27.373Z,1033.05
2016-09-07T07:39:27.387Z,1033.04
2016-09-07T07:40:27.396Z,1033.03
2016-09-07T07:41:27.403Z,1032.97
2016-09-07T07:42:27.413Z,1032.97
2016-09-07T07:43:27.422Z,1032.95
2016-09-07T07:44:27.437Z,1032.98
2016-09-07T07:45:27.441Z,1033.1
2016-09-07T07:46:27.458Z,1033.09
2016-09-07T07:47:27.460Z,1032.96
2016-09-07T07:48:27.470Z,1032.89
2016-09-07T07:49:27.480Z,1032.8
2016-09-07T07:50:27.492Z,1032.68
2016-09-07T07:51:27.499Z,1032.65
2016-09-07T07:52:27.509Z,1032.55
2016-09-07T07:53:27.518Z,1032.49
2016-09-07T07:54:27.531Z,1032.47
2016-09-07T07:55:27.544Z,1032.5
2016-09-07T07:56:27.552Z,1032.44
2016-09-07T07:57:28.161Z,1032.36
2016-09-07T07:58:27.565Z,1032.34
2016-09-07T07:59:27.576Z,1032.3
2016-09-07T08:00:27.585Z,1032.24
2016-09-07T08:01:27.648Z,1032.18
2016-09-07T08:02:28.052Z,1032.17
2016-09-07T08:03:27.619Z,1032.15
2016-09-07T08:04:27.629Z,1032.15
2016-09-07T08:05:27.632Z,1032.11
2016-09-07T08:06:28.346Z,1032.17
2016-09-07T08:07:27.651Z,1032.2
2016-09-07T08:08:27.662Z,1032.27
2016-09-07T08:09:27.675Z,1032.32
2016-09-07T08:10:28.059Z,1032.29
2016-09-07T08:11:27.689Z,1032.27
2016-09-07T08:12:27.698Z,1032.49
2016-09-07T08:13:27.708Z,1033.05
2016-09-07T08:14:27.717Z,1033.74
2016-09-07T08:15:27.732Z,1034.24
2016-09-07T08:16:27.735Z,1034.7
2016-09-07T08:17:27.742Z,1035.16
2016-09-07T08:18:27.752Z,1035.5
2016-09-07T08:19:27.768Z,1035.76
2016-09-07T08:20:27.768Z,1036.08
2016-09-07T08:21:27.776Z,1036.36
2016-09-07T08:22:27.783Z,1036.57
2016-09-07T08:23:27.792Z,1036.8
2016-09-07T08:24:27.798Z,1036.94
2016-09-07T08:25:28.018Z,1037.15
2016-09-07T08:26:27.813Z,1037.31
2016-09-07T08:27:27.825Z,1037.39
2016-09-07T08:28:27.826Z,1037.51
2016-09-07T08:29:27.832Z,1037.6
2016-09-07T08:30:27.844Z,1037.76
2016-09-07T08:31:27.841Z,1037.89
2016-09-07T08:32:27.849Z,1038.03
2016-09-07T08:33:27.853Z,1038.13
2016-09-07T08:34:27.864Z,1038.22
2016-09-07T08:35:27.864Z,1038.22
2016-09-07T08:36:27.880Z,1038.33
2016-09-07T08:37:27.871Z,1038.38
2016-09-07T08:38:27.875Z,1038.35
2016-09-07T08:39:27.879Z,1038.38
2016-09-07T08:40:27.883Z,1038.46
2016-09-07T08:41:27.887Z,1038.49
2016-09-07T08:42:27.896Z,1038.47
2016-09-07T08:43:27.895Z,1038.5
2016-09-07T08:44:27.897Z,1038.51
2016-09-07T08:45:27.901Z,1038.59
2016-09-07T08:46:27.902Z,1038.58
2016-09-07T08:47:27.906Z,1038.56
2016-09-07T08:48:27.907Z,1038.57
2016-09-07T08:49:27.913Z,1038.58
2016-09-07T08:50:27.919Z,1038.56
2016-09-07T08:51:27.920Z,1038.59
2016-09-07T08:52:27.925Z,1038.59
2016-09-07T08:53:27.922Z,1038.67
2016-09-07T08:54:27.928Z,1038.65
2016-09-07T08:55:27.934Z,1038.68
2016-09-07T08:56:27.936Z,1038.76
2016-09-07T08:57:27.932Z,1038.77
2016-09-07T08:58:27.933Z,1038.8
2016-09-07T08:59:27.941Z,1038.8
2016-09-07T09:00:27.938Z,1038.79
2016-09-07T09:01:27.945Z,1038.81
2016-09-07T09:02:27.941Z,1038.77
2016-09-07T09:03:27.951Z,1038.76
2016-09-07T09:04:27.945Z,1038.74
2016-09-07T09:05:27.947Z,1038.83
2016-09-07T09:06:27.949Z,1038.83
2016-09-07T09:07:27.958Z,1038.8
2016-09-07T09:08:27.959Z,1038.81
2016-09-07T09:09:27.955Z,1038.79
2016-09-07T09:10:27.956Z,1038.77
2016-09-07T09:11:27.964Z,1038.76
2016-09-07T09:12:27.959Z,1038.69
2016-09-07T09:13:27.964Z,1038.63
2016-09-07T09:14:27.966Z,1038.61
2016-09-07T09:15:27.970Z,1038.59
2016-09-07T09:16:28.949Z,1038.55
2016-09-07T09:17:29.342Z,1038.53
2016-09-07T09:18:27.971Z,1038.5
2016-09-07T09:19:27.970Z,1038.5
2016-09-07T09:20:27.974Z,1038.43
2016-09-07T09:21:27.982Z,1038.41
2016-09-07T09:22:27.978Z,1038.35
2016-09-07T09:23:27.986Z,1038.36
2016-09-07T09:24:27.985Z,1038.32
2016-09-07T09:25:29.202Z,1038.32
2016-09-07T09:26:27.981Z,1038.3
2016-09-07T09:27:27.986Z,1038.26
2016-09-07T09:28:27.991Z,1038.23
2016-09-07T09:29:27.987Z,1038.22
2016-09-07T09:30:27.994Z,1038.23
2016-09-07T09:31:27.990Z,1038.21
2016-09-07T09:32:27.992Z,1038.16
2016-09-07T09:33:27.999Z,1038.17
2016-09-07T09:34:27.995Z,1038.17
2016-09-07T09:35:28.002Z,1038.1
2016-09-07T09:36:28.001Z,1038.06
2016-09-07T09:37:28.000Z,1038.06
2016-09-07T09:38:28.003Z,1038.03
2016-09-07T09:39:28.010Z,1038.04
2016-09-07T09:40:28.005Z,1037.99
2016-09-07T09:41:29.107Z,1038.02
2016-09-07T09:42:28.811Z,1038.01
2016-09-07T09:43:28.013Z,1037.96
2016-09-07T09:44:28.368Z,1037.97
2016-09-07T09:45:28.264Z,1037.97
2016-09-07T09:46:28.016Z,1037.91
2016-09-07T09:47:28.117Z,1037.9
2016-09-07T09:48:28.025Z,1037.83
2016-09-07T09:49:28.020Z,1037.86
2016-09-07T09:50:28.023Z,1037.77
2016-09-07T09:51:28.027Z,1037.84
2016-09-07T09:52:28.683Z,1037.86
2016-09-07T09:53:28.034Z,1037.84
2016-09-07T09:54:28.030Z,1037.78
2016-09-07T09:55:28.384Z,1037.8
2016-09-07T09:56:28.032Z,1037.79
2016-09-07T09:57:28.042Z,1037.76
2016-09-07T09:58:28.037Z,1037.69
2016-09-07T09:59:28.038Z,1037.66
2016-09-07T10:00:28.041Z,1037.67
2016-09-07T10:01:28.044Z,1037.68
2016-09-07T10:02:28.045Z,1037.62
2016-09-07T10:03:28.046Z,1037.56
2016-09-07T10:04:28.054Z,1037.57
2016-09-07T10:05:28.058Z,1037.56
2016-09-07T10:06:28.052Z,1037.52
2016-09-07T10:07:28.054Z,1037.53
2016-09-07T10:08:28.063Z,1037.5
2016-09-07T10:09:28.065Z,1037.49
2016-09-07T10:10:28.070Z,1037.46
2016-09-07T10:11:28.063Z,1037.45
2016-09-07T10:12:28.067Z,1037.38
2016-09-07T10:13:28.072Z,1037.41
2016-09-07T10:14:28.069Z,1037.43
2016-09-07T10:15:28.076Z,1037.42
2016-09-07T10:16:28.074Z,1037.42
2016-09-07T10:17:28.082Z,1037.37
2016-09-07T10:18:28.076Z,1037.31
2016-09-07T10:19:28.079Z,1037.29
2016-09-07T10:20:28.081Z,1037.25
2016-09-07T10:21:28.082Z,1037.23
2016-09-07T10:22:28.084Z,1037.21
2016-09-07T10:23:28.087Z,1037.14
2016-09-07T10:24:28.092Z,1037.09
2016-09-07T10:25:28.099Z,1037.09
2016-09-07T10:26:28.094Z,1037.06
2016-09-07T10:27:28.096Z,1037.03
2016-09-07T10:28:28.100Z,1036.96
2016-09-07T10:29:28.108Z,1036.97
2016-09-07T10:30:28.110Z,1036.9
2016-09-07T10:31:28.106Z,1036.87
2016-09-07T10:32:28.107Z,1036.83
2016-09-07T10:33:28.115Z,1036.82
2016-09-07T10:34:28.114Z,1036.82
2016-09-07T10:35:28.121Z,1036.76
2016-09-07T10:36:28.865Z,1036.78
2016-09-07T10:37:28.126Z,1036.74
2016-09-07T10:38:28.665Z,1036.74
2016-09-07T10:39:28.126Z,1036.71
2016-09-07T10:40:28.126Z,1036.69
2016-09-07T10:41:28.136Z,1036.66
2016-09-07T10:42:28.134Z,1036.6
2016-09-07T10:43:28.134Z,1036.6
2016-09-07T10:44:28.137Z,1036.57
2016-09-07T10:45:28.139Z,1036.63
2016-09-07T10:46:28.513Z,1036.67
2016-09-07T10:47:28.146Z,1036.69
2016-09-07T10:48:28.146Z,1036.67
2016-09-07T10:49:28.151Z,1036.62
2016-09-07T10:50:28.153Z,1036.62
2016-09-07T10:51:28.157Z,1036.62
2016-09-07T10:52:28.164Z,1036.57
2016-09-07T10:53:28.163Z,1036.53
2016-09-07T10:54:28.163Z,1036.54
2016-09-07T10:55:28.169Z,1036.51
2016-09-07T10:56:28.175Z,1036.47
2016-09-07T10:57:28.170Z,1036.5
2016-09-07T10:58:28.175Z,1036.48
2016-09-07T10:59:28.178Z,1036.47
2016-09-07T11:00:28.181Z,1036.44
2016-09-07T11:01:28.180Z,1036.4
2016-09-07T11:02:28.184Z,1036.39
2016-09-07T11:03:28.192Z,1036.33
2016-09-07T11:04:28.189Z,1036.28
2016-09-07T11:05:28.197Z,1036.25
2016-09-07T11:06:28.194Z,1036.23
2016-09-07T11:07:28.199Z,1036.23
2016-09-07T11:08:28.750Z,1036.19
2016-09-07T11:09:28.559Z,1036.14
2016-09-07T11:10:28.212Z,1036.13
2016-09-07T11:11:28.560Z,1036.1
2016-09-07T11:12:28.211Z,1036.06
2016-09-07T11:13:28.214Z,1036.02
2016-09-07T11:14:28.318Z,1035.99
2016-09-07T11:15:28.222Z,1035.92
2016-09-07T11:16:28.223Z,1035.94
2016-09-07T11:17:28.227Z,1035.88
2016-09-07T11:18:28.232Z,1035.92
2016-09-07T11:19:28.238Z,1035.9
2016-09-07T11:20:28.236Z,1035.84
2016-09-07T11:21:28.246Z,1035.84
2016-09-07T11:22:28.242Z,1035.79
2016-09-07T11:23:28.255Z,1035.79
2016-09-07T11:24:28.255Z,1035.75
2016-09-07T11:25:28.258Z,1035.75
2016-09-07T11:26:28.256Z,1035.74
2016-09-07T11:27:28.260Z,1035.73
2016-09-07T11:28:28.265Z,1035.69
2016-09-07T11:29:28.265Z,1035.64
2016-09-07T11:30:28.268Z,1035.64
2016-09-07T11:31:28.274Z,1035.58
2016-09-07T11:32:28.274Z,1035.57
2016-09-07T11:33:28.278Z,1035.53
2016-09-07T11:34:28.293Z,1035.52
2016-09-07T11:35:28.285Z,1035.46
2016-09-07T11:36:28.291Z,1035.44
2016-09-07T11:37:28.293Z,1035.45
2016-09-07T11:38:28.295Z,1035.46
2016-09-07T11:39:28.305Z,1035.43
2016-09-07T11:40:28.304Z,1035.39
2016-09-07T11:41:28.318Z,1035.37
2016-09-07T11:42:28.315Z,1035.37
2016-09-07T11:43:28.313Z,1035.32
2016-09-07T11:44:28.317Z,1035.33
2016-09-07T11:45:28.320Z,1035.29
2016-09-07T11:46:28.323Z,1035.25
2016-09-07T11:47:28.330Z,1035.23
2016-09-07T11:48:28.336Z,1035.17
2016-09-07T11:49:28.334Z,1035.19
2016-09-07T11:50:28.338Z,1035.19
2016-09-07T11:51:29.623Z,1035.16
2016-09-07T11:52:28.345Z,1035.1
2016-09-07T11:53:28.925Z,1035.1
2016-09-07T11:54:28.352Z,1035.07
2016-09-07T11:55:28.362Z,1035.03
2016-09-07T11:56:28.359Z,1035.06
2016-09-07T11:57:28.362Z,1035.12
2016-09-07T11:58:28.370Z,1035.08
2016-09-07T11:59:28.370Z,1035.13
2016-09-07T12:00:29.937Z,1035.13
2016-09-07T12:01:28.622Z,1035.17
2016-09-07T12:02:29.311Z,1035.17
2016-09-07T12:03:28.387Z,1035.11
2016-09-07T12:04:28.388Z,1035.15
2016-09-07T12:05:28.393Z,1035.09
2016-09-07T12:06:28.397Z,1035.09
2016-09-07T12:07:28.406Z,1035.09
2016-09-07T12:08:28.404Z,1035.07
2016-09-07T12:09:28.407Z,1035.09
2016-09-07T12:10:28.413Z,1035.11